Stations météo

réclame
Mon MeteoGroup
Apt, France (7657): Température de l'air & dewpoint: 12.02.2019 20:00:00 - 18.02.2019 20:00:00 (CET)Apt, France (7657): Vitesse du vent & gusts: 12.02.2019 20:00:00 - 18.02.2019 20:00:00 (CET)Apt, France (7657): Direction du vent: 12.02.2019 20:00:00 - 18.02.2019 20:00:00 (CET)Apt, France (7657): Quantités de précipitations: 12.02.2019 20:00:00 - 18.02.2019 20:00:00 (CET)
Date & Time tt [°C] td [°C] ff [km/h] ff [knt] fx [km/h] fx [knt] dd rr [mm]
18.02.2019 20:00:00 - - - - - - - -
18.02.2019 19:00:00 2,1 -0,5 4 2 11 6 N -
18.02.2019 18:00:00 6,1 0,8 8 4 18 10 W 0,0
18.02.2019 17:00:00 10,2 1,8 9 5 21 11 SW 0,0
18.02.2019 16:00:00 10,2 -0,1 11 6 24 13 ESE 0,0
18.02.2019 15:00:00 10,3 -1,4 13 7 28 15 SE 0,0
18.02.2019 14:00:00 9,9 -0,3 18 10 31 17 SE 0,0
18.02.2019 13:00:00 9,7 -1,4 15 8 28 15 SE -
18.02.2019 12:00:00 8,7 -0,6 15 8 24 13 ESE 0,0
18.02.2019 11:00:00 7,5 -2,0 11 6 21 11 SE 0,0
18.02.2019 10:00:00 6,0 -0,5 9 5 15 8 ESE 0,0
18.02.2019 09:00:00 -0,3 -1,0 0 0 5 3 N 0,0
18.02.2019 08:00:00 -6,8 -7,6 0 0 5 3 N 0,0
18.02.2019 07:00:00 -6,5 -7,0 4 2 8 4 SSW -
18.02.2019 06:00:00 -7,2 -8,4 2 1 5 3 SW 0,0
18.02.2019 05:00:00 -6,1 -7,0 0 0 4 2 N 0,0
18.02.2019 04:00:00 -6,1 -7,0 0 0 5 3 N 0,0
18.02.2019 03:00:00 -3,7 -3,8 0 0 5 3 N 0,0
18.02.2019 02:00:00 -4,5 -5,3 4 2 8 4 SSW 0,0
18.02.2019 01:00:00 -5,1 -6,2 2 1 5 3 SSW -
18.02.2019 00:00:00 -4,1 -4,8 0 0 4 2 N 0,0
17.02.2019 23:00:00 -4,0 -5,1 2 1 5 3 W 0,0
17.02.2019 22:00:00 -1,9 -2,5 4 2 8 4 W 0,0
17.02.2019 21:00:00 -2,1 -4,0 0 0 8 4 N 0,0
17.02.2019 20:00:00 -0,2 -2,1 2 1 5 3 W 0,0
17.02.2019 19:00:00 2,2 -0,6 4 2 8 4 W -
17.02.2019 18:00:00 7,1 1,8 5 3 21 11 SW 0,0
17.02.2019 17:00:00 11,6 0,1 11 6 21 11 SSW 0,0
17.02.2019 16:00:00 13,0 -2,5 9 5 26 14 SSE 0,0
17.02.2019 15:00:00 13,0 -2,5 15 8 28 15 SSE 0,0
17.02.2019 14:00:00 13,0 -1,7 13 7 26 14 SE 0,0
17.02.2019 13:00:00 12,4 -2,3 16 9 26 14 SE -
17.02.2019 12:00:00 12,2 -1,0 13 7 24 13 ESE 0,0
17.02.2019 11:00:00 11,3 -0,5 11 6 18 10 SE 0,0
17.02.2019 10:00:00 10,1 0,7 2 1 9 5 SE 0,0
17.02.2019 09:00:00 1,5 -1,1 2 1 4 2 SSW 0,0
17.02.2019 08:00:00 -5,8 -6,6 0 0 5 3 N 0,0
17.02.2019 07:00:00 -6,5 -7,4 2 1 4 2 WSW -
17.02.2019 06:00:00 -6,4 -7,5 0 0 5 3 N 0,0
17.02.2019 05:00:00 -6,4 -7,5 2 1 5 3 SW 0,0
17.02.2019 04:00:00 -6,1 -7,5 2 1 5 3 WSW 0,0
17.02.2019 03:00:00 -5,6 -7,0 2 1 5 3 W 0,0
17.02.2019 02:00:00 -5,4 -7,2 0 0 4 2 N 0,0
17.02.2019 01:00:00 -5,0 -6,7 0 0 4 2 N -
17.02.2019 00:00:00 -4,6 -6,7 0 0 4 2 N 0,0
16.02.2019 23:00:00 -3,8 -5,8 0 0 8 4 N 0,0
16.02.2019 22:00:00 -2,7 -5,0 0 0 5 3 N 0,0
16.02.2019 21:00:00 -0,5 -3,7 4 2 8 4 W 0,0
16.02.2019 20:00:00 0,5 -3,8 2 1 8 4 WNW 0,0
16.02.2019 19:00:00 4,2 -2,9 4 2 11 6 W -
16.02.2019 18:00:00 9,3 -3,0 4 2 18 10 WNW 0,0
16.02.2019 17:00:00 13,9 -3,9 11 6 24 13 WSW 0,0
16.02.2019 16:00:00 15,2 -2,3 13 7 26 14 WSW 0,0
16.02.2019 15:00:00 15,9 -2,6 15 8 24 13 SW 0,0
16.02.2019 14:00:00 15,7 -1,9 8 4 22 12 E 0,0
16.02.2019 13:00:00 14,9 -3,0 11 6 24 13 ESE -
16.02.2019 12:00:00 14,6 -3,7 8 4 16 9 SE 0,0
16.02.2019 11:00:00 13,4 -3,0 8 4 15 8 ESE 0,0
16.02.2019 10:00:00 10,9 1,7 0 0 2 1 N 0,0
16.02.2019 09:00:00 1,5 -1,4 0 0 4 2 N 0,0
16.02.2019 08:00:00 -4,9 -5,4 2 1 4 2 W 0,0
16.02.2019 07:00:00 -5,8 -7,2 0 0 4 2 N -
16.02.2019 06:00:00 -5,3 -6,7 0 0 5 3 N 0,0
16.02.2019 05:00:00 -4,7 -6,5 0 0 4 2 N 0,0
16.02.2019 04:00:00 -3,5 -6,1 0 0 9 5 N 0,0
16.02.2019 03:00:00 -1,2 -4,4 0 0 15 8 N 0,0
16.02.2019 02:00:00 -1,6 -4,3 8 4 13 7 S 0,0
16.02.2019 01:00:00 -3,5 -5,4 8 4 9 5 SW -
16.02.2019 00:00:00 -4,0 -5,8 0 0 2 1 N 0,0
15.02.2019 23:00:00 -2,1 -5,3 4 2 8 4 WNW 0,0
15.02.2019 22:00:00 -2,3 -5,3 0 0 8 4 N 0,0
15.02.2019 21:00:00 -0,7 -2,9 0 0 4 2 N 0,0
15.02.2019 20:00:00 1,1 -2,5 2 1 9 5 NNW 0,0
15.02.2019 19:00:00 4,0 -1,2 8 4 11 6 WNW -
15.02.2019 18:00:00 7,7 -1,8 4 2 13 7 WSW 0,0
15.02.2019 17:00:00 16,3 -3,3 5 3 13 7 SE 0,0
15.02.2019 16:00:00 17,6 -5,0 5 3 16 9 SSE 0,0
15.02.2019 15:00:00 17,2 -9,7 8 4 18 10 ESE 0,0
15.02.2019 14:00:00 17,1 -5,4 8 4 22 12 SE 0,0
15.02.2019 13:00:00 16,1 -4,5 9 5 21 11 ESE -
15.02.2019 12:00:00 15,5 -4,0 9 5 21 11 SE 0,0
15.02.2019 11:00:00 15,1 -2,4 4 2 11 6 SSE 0,0
15.02.2019 10:00:00 10,0 1,4 0 0 5 3 N 0,0
15.02.2019 09:00:00 1,8 -1,3 0 0 5 3 N 0,0
15.02.2019 08:00:00 -4,0 -5,4 2 1 4 2 SSW 0,0
15.02.2019 07:00:00 -5,9 -7,1 0 0 5 3 N -
15.02.2019 06:00:00 -5,8 -7,2 0 0 8 4 N 0,0
15.02.2019 05:00:00 -5,1 -6,3 0 0 5 3 N 0,0
15.02.2019 04:00:00 -5,6 -6,8 0 0 4 2 N 0,0
15.02.2019 03:00:00 -5,3 -6,4 0 0 5 3 N 0,0
15.02.2019 02:00:00 -4,9 -6,1 5 3 8 4 W 0,0
15.02.2019 01:00:00 -4,4 -5,6 2 1 8 4 W -
15.02.2019 00:00:00 -4,2 -5,6 4 2 5 3 W 0,0
14.02.2019 23:00:00 -3,1 -4,4 0 0 4 2 N 0,0
14.02.2019 22:00:00 -2,4 -4,6 0 0 4 2 N 0,0
14.02.2019 21:00:00 -1,2 -3,9 2 1 8 4 WNW 0,0
14.02.2019 20:00:00 1,0 -2,6 4 2 11 6 W 0,0
14.02.2019 19:00:00 3,1 -2,4 8 4 9 5 WNW -
14.02.2019 18:00:00 7,5 -2,3 4 2 11 6 WNW 0,0
14.02.2019 17:00:00 13,4 -1,4 8 4 18 10 WSW 0,0
14.02.2019 16:00:00 15,0 -4,4 5 3 18 10 S 0,0
14.02.2019 15:00:00 14,7 -4,1 8 4 18 10 SSE 0,0
14.02.2019 14:00:00 14,1 -5,1 8 4 16 9 SE 0,0
14.02.2019 13:00:00 13,2 -6,4 8 4 18 10 SE -
14.02.2019 12:00:00 12,6 -6,4 11 6 21 11 SE 0,0
14.02.2019 11:00:00 11,8 -5,2 4 2 9 5 SE 0,0
14.02.2019 10:00:00 8,4 -1,7 0 0 4 2 N 0,0
14.02.2019 09:00:00 0,8 -3,0 0 0 4 2 N 0,0
14.02.2019 08:00:00 -6,1 -7,5 2 1 5 3 W 0,0
14.02.2019 07:00:00 -6,7 -8,2 2 1 5 3 W -
14.02.2019 06:00:00 -6,7 -8,1 0 0 4 2 N 0,0
14.02.2019 05:00:00 -6,6 -8,3 2 1 5 3 ESE 0,0
14.02.2019 04:00:00 -6,2 -7,7 0 0 2 1 N 0,0
14.02.2019 03:00:00 -6,2 -7,9 0 0 4 2 N 0,0
14.02.2019 02:00:00 -5,5 -7,5 0 0 5 3 N 0,0
14.02.2019 01:00:00 -4,6 -6,3 0 0 5 3 N -
14.02.2019 00:00:00 -3,9 -6,4 2 1 4 2 WSW 0,0
13.02.2019 23:00:00 -4,1 -6,2 2 1 8 4 W 0,0
13.02.2019 22:00:00 -3,3 -6,3 0 0 5 3 N 0,0
13.02.2019 21:00:00 -1,7 -4,7 0 0 8 4 N 0,0
13.02.2019 20:00:00 0,0 -4,1 2 1 5 3 SW 0,0
13.02.2019 19:00:00 2,3 -3,2 0 0 5 3 N -
13.02.2019 18:00:00 6,1 -2,3 5 3 16 9 SSW 0,0
13.02.2019 17:00:00 11,1 -2,0 11 6 21 11 SSE 0,0
13.02.2019 16:00:00 12,4 -2,3 11 6 22 12 SSE 0,0
13.02.2019 15:00:00 12,8 -3,5 11 6 26 14 SE 0,0
13.02.2019 14:00:00 13,0 -7,1 13 7 24 13 SSE 0,0
13.02.2019 13:00:00 13,6 -10,3 9 5 22 12 SSE -
13.02.2019 12:00:00 13,9 -15,1 8 4 15 8 SE 0,0
13.02.2019 11:00:00 13,2 -12,1 8 4 13 7 SE 0,0
13.02.2019 10:00:00 7,6 -8,9 4 2 8 4 N 0,0
13.02.2019 09:00:00 0,6 -7,0 4 2 8 4 N 0,0
13.02.2019 08:00:00 -6,7 -9,6 2 1 5 3 ESE 0,0
13.02.2019 07:00:00 -6,4 -9,9 0 0 4 2 N -
13.02.2019 06:00:00 -6,1 -10,3 0 0 5 3 N 0,0
13.02.2019 05:00:00 -6,7 -10,1 2 1 4 2 S 0,0
13.02.2019 04:00:00 -5,9 -9,6 0 0 9 5 N 0,0
13.02.2019 03:00:00 -5,1 -9,9 2 1 9 5 W 0,0
13.02.2019 02:00:00 -3,4 -10,1 4 2 9 5 WSW 0,0
13.02.2019 01:00:00 -1,1 -10,0 2 1 13 7 NW -
13.02.2019 00:00:00 0,5 -10,7 11 6 28 15 WNW 0,0
12.02.2019 23:00:00 3,0 -11,0 18 10 34 18 WNW 0,0
12.02.2019 22:00:00 4,7 -11,9 16 9 34 18 WNW 0,0
12.02.2019 21:00:00 4,1 -11,6 16 9 28 15 WNW 0,0
12.02.2019 20:00:00 5,9 -11,7 15 8 26 14 WSW 0,0

tt = Température de l'air
td = dewpoint
ff = Vitesse du vent
fx = gusts
dd = Direction du vent
rr = Quantités de précipitations

stations d'obs. à proximité